sensor_id;sensor_type;location;lat;lon;timestamp;temperature;humidity
15959;DHT22;8078;47.822;9.402;2023-08-31T00:01:46;12.60;99.90
15959;DHT22;8078;47.822;9.402;2023-08-31T00:04:14;12.70;99.90
15959;DHT22;8078;47.822;9.402;2023-08-31T00:06:43;12.70;99.90
15959;DHT22;8078;47.822;9.402;2023-08-31T00:09:11;12.70;99.90
15959;DHT22;8078;47.822;9.402;2023-08-31T00:11:37;12.70;99.90
15959;DHT22;8078;47.822;9.402;2023-08-31T00:14:02;12.70;99.90
15959;DHT22;8078;47.822;9.402;2023-08-31T00:16:28;12.60;99.90
15959;DHT22;8078;47.822;9.402;2023-08-31T00:18:56;12.60;99.90
15959;DHT22;8078;47.822;9.402;2023-08-31T00:21:21;12.50;99.90
15959;DHT22;8078;47.822;9.402;2023-08-31T00:23:47;12.50;99.90
15959;DHT22;8078;47.822;9.402;2023-08-31T00:26:13;12.40;99.90
15959;DHT22;8078;47.822;9.402;2023-08-31T00:28:40;12.40;99.90
15959;DHT22;8078;47.822;9.402;2023-08-31T00:31:08;12.30;99.90
15959;DHT22;8078;47.822;9.402;2023-08-31T00:33:33;12.40;99.90
15959;DHT22;8078;47.822;9.402;2023-08-31T00:36:00;12.30;99.90
15959;DHT22;8078;47.822;9.402;2023-08-31T00:38:29;12.30;99.90
15959;DHT22;8078;47.822;9.402;2023-08-31T00:40:55;12.30;99.90
15959;DHT22;8078;47.822;9.402;2023-08-31T00:43:21;12.30;99.90
15959;DHT22;8078;47.822;9.402;2023-08-31T00:45:49;12.30;99.90
15959;DHT22;8078;47.822;9.402;2023-08-31T00:48:16;12.30;99.90
15959;DHT22;8078;47.822;9.402;2023-08-31T00:50:45;12.30;99.90
15959;DHT22;8078;47.822;9.402;2023-08-31T00:53:11;12.30;99.90
15959;DHT22;8078;47.822;9.402;2023-08-31T00:55:37;12.30;99.90
15959;DHT22;8078;47.822;9.402;2023-08-31T00:58:05;12.30;99.90
15959;DHT22;8078;47.822;9.402;2023-08-31T01:00:52;12.20;99.90
15959;DHT22;8078;47.822;9.402;2023-08-31T01:06:14;12.00;99.90
15959;DHT22;8078;47.822;9.402;2023-08-31T01:08:52;12.00;99.90
15959;DHT22;8078;47.822;9.402;2023-08-31T01:11:37;11.90;99.90
15959;DHT22;8078;47.822;9.402;2023-08-31T01:14:32;11.80;99.90
15959;DHT22;8078;47.822;9.402;2023-08-31T01:16:58;11.70;99.90
15959;DHT22;8078;47.822;9.402;2023-08-31T01:19:52;11.70;99.90
15959;DHT22;8078;47.822;9.402;2023-08-31T01:24:56;11.60;99.90
15959;DHT22;8078;47.822;9.402;2023-08-31T01:27:23;11.60;99.90
15959;DHT22;8078;47.822;9.402;2023-08-31T01:29:49;11.60;99.90
15959;DHT22;8078;47.822;9.402;2023-08-31T01:32:15;11.60;99.90
15959;DHT22;8078;47.822;9.402;2023-08-31T01:34:40;11.50;99.90
15959;DHT22;8078;47.822;9.402;2023-08-31T01:37:14;11.50;99.90
15959;DHT22;8078;47.822;9.402;2023-08-31T01:39:57;11.50;99.90
15959;DHT22;8078;47.822;9.402;2023-08-31T01:42:26;11.40;99.90
15959;DHT22;8078;47.822;9.402;2023-08-31T01:44:53;11.40;99.90
15959;DHT22;8078;47.822;9.402;2023-08-31T01:47:21;11.40;99.90
15959;DHT22;8078;47.822;9.402;2023-08-31T01:49:47;11.30;99.90
15959;DHT22;8078;47.822;9.402;2023-08-31T01:52:12;11.30;99.90
15959;DHT22;8078;47.822;9.402;2023-08-31T01:54:38;11.30;99.90
15959;DHT22;8078;47.822;9.402;2023-08-31T01:57:04;11.30;99.90
15959;DHT22;8078;47.822;9.402;2023-08-31T01:59:29;11.30;99.90
15959;DHT22;8078;47.822;9.402;2023-08-31T02:01:55;11.30;99.90
15959;DHT22;8078;47.822;9.402;2023-08-31T02:04:21;11.30;99.90
15959;DHT22;8078;47.822;9.402;2023-08-31T02:06:46;11.30;99.90
15959;DHT22;8078;47.822;9.402;2023-08-31T02:09:13;11.30;99.90
15959;DHT22;8078;47.822;9.402;2023-08-31T02:11:39;11.30;99.90
15959;DHT22;8078;47.822;9.402;2023-08-31T02:14:05;11.30;99.90
15959;DHT22;8078;47.822;9.402;2023-08-31T02:16:31;11.30;99.90
15959;DHT22;8078;47.822;9.402;2023-08-31T02:18:57;11.40;99.90
15959;DHT22;8078;47.822;9.402;2023-08-31T02:21:22;11.40;99.90
15959;DHT22;8078;47.822;9.402;2023-08-31T02:23:48;11.40;99.90
15959;DHT22;8078;47.822;9.402;2023-08-31T02:26:14;11.40;99.90
15959;DHT22;8078;47.822;9.402;2023-08-31T02:28:39;11.30;99.90
15959;DHT22;8078;47.822;9.402;2023-08-31T02:31:05;11.30;99.90
15959;DHT22;8078;47.822;9.402;2023-08-31T02:33:30;11.40;99.90
15959;DHT22;8078;47.822;9.402;2023-08-31T02:35:56;11.40;99.90
15959;DHT22;8078;47.822;9.402;2023-08-31T02:38:22;11.40;99.90
15959;DHT22;8078;47.822;9.402;2023-08-31T02:40:48;11.40;99.90
15959;DHT22;8078;47.822;9.402;2023-08-31T02:43:14;11.40;99.90
15959;DHT22;8078;47.822;9.402;2023-08-31T02:45:40;11.50;99.90
15959;DHT22;8078;47.822;9.402;2023-08-31T02:48:09;11.40;99.90
15959;DHT22;8078;47.822;9.402;2023-08-31T02:50:35;11.40;99.90
15959;DHT22;8078;47.822;9.402;2023-08-31T02:53:01;11.40;99.90
15959;DHT22;8078;47.822;9.402;2023-08-31T02:55:27;11.40;99.90
15959;DHT22;8078;47.822;9.402;2023-08-31T02:57:53;11.30;99.90
15959;DHT22;8078;47.822;9.402;2023-08-31T03:00:19;11.40;99.90
15959;DHT22;8078;47.822;9.402;2023-08-31T03:02:50;11.50;99.90
15959;DHT22;8078;47.822;9.402;2023-08-31T03:05:18;11.50;99.90
15959;DHT22;8078;47.822;9.402;2023-08-31T03:07:43;11.40;99.90
15959;DHT22;8078;47.822;9.402;2023-08-31T03:10:09;11.40;99.90
15959;DHT22;8078;47.822;9.402;2023-08-31T03:12:35;11.40;99.90
15959;DHT22;8078;47.822;9.402;2023-08-31T03:15:01;11.30;99.90
15959;DHT22;8078;47.822;9.402;2023-08-31T03:17:27;11.10;99.90
15959;DHT22;8078;47.822;9.402;2023-08-31T03:19:52;11.20;99.90
15959;DHT22;8078;47.822;9.402;2023-08-31T03:22:18;11.10;99.90
15959;DHT22;8078;47.822;9.402;2023-08-31T03:24:43;10.90;99.90
15959;DHT22;8078;47.822;9.402;2023-08-31T03:27:09;10.80;99.90
15959;DHT22;8078;47.822;9.402;2023-08-31T03:29:35;10.70;99.90
15959;DHT22;8078;47.822;9.402;2023-08-31T03:32:01;10.60;99.90
15959;DHT22;8078;47.822;9.402;2023-08-31T03:34:30;10.60;99.90
15959;DHT22;8078;47.822;9.402;2023-08-31T03:36:56;10.60;99.90
15959;DHT22;8078;47.822;9.402;2023-08-31T03:39:23;10.60;99.90
15959;DHT22;8078;47.822;9.402;2023-08-31T03:41:49;10.60;99.90
15959;DHT22;8078;47.822;9.402;2023-08-31T03:44:14;10.50;99.90
15959;DHT22;8078;47.822;9.402;2023-08-31T03:46:40;10.50;99.90
15959;DHT22;8078;47.822;9.402;2023-08-31T03:49:05;10.50;99.90
15959;DHT22;8078;47.822;9.402;2023-08-31T03:51:31;10.40;99.90
15959;DHT22;8078;47.822;9.402;2023-08-31T03:53:56;10.50;99.90
15959;DHT22;8078;47.822;9.402;2023-08-31T03:56:22;10.50;99.90
15959;DHT22;8078;47.822;9.402;2023-08-31T03:58:49;10.50;99.90
15959;DHT22;8078;47.822;9.402;2023-08-31T04:01:14;10.40;99.90
15959;DHT22;8078;47.822;9.402;2023-08-31T04:03:42;10.40;99.90
15959;DHT22;8078;47.822;9.402;2023-08-31T04:06:07;10.40;99.90
15959;DHT22;8078;47.822;9.402;2023-08-31T04:08:33;10.40;99.90
15959;DHT22;8078;47.822;9.402;2023-08-31T04:10:59;10.50;99.90
15959;DHT22;8078;47.822;9.402;2023-08-31T04:13:25;10.50;99.90
15959;DHT22;8078;47.822;9.402;2023-08-31T04:15:52;10.50;99.90
15959;DHT22;8078;47.822;9.402;2023-08-31T04:18:18;10.50;99.90
15959;DHT22;8078;47.822;9.402;2023-08-31T04:20:49;10.50;99.90
15959;DHT22;8078;47.822;9.402;2023-08-31T04:23:16;10.50;99.90
15959;DHT22;8078;47.822;9.402;2023-08-31T04:25:42;10.50;99.90
15959;DHT22;8078;47.822;9.402;2023-08-31T04:28:07;10.50;99.90
15959;DHT22;8078;47.822;9.402;2023-08-31T04:30:33;10.50;99.90
15959;DHT22;8078;47.822;9.402;2023-08-31T04:32:59;10.50;99.90
15959;DHT22;8078;47.822;9.402;2023-08-31T04:35:24;10.50;99.90
15959;DHT22;8078;47.822;9.402;2023-08-31T04:37:50;10.50;99.90
15959;DHT22;8078;47.822;9.402;2023-08-31T04:40:16;10.50;99.90
15959;DHT22;8078;47.822;9.402;2023-08-31T04:42:42;10.50;99.90
15959;DHT22;8078;47.822;9.402;2023-08-31T04:45:09;10.50;99.90
15959;DHT22;8078;47.822;9.402;2023-08-31T04:47:35;10.60;99.90
15959;DHT22;8078;47.822;9.402;2023-08-31T04:50:01;10.70;99.90
15959;DHT22;8078;47.822;9.402;2023-08-31T04:52:26;10.70;99.90
15959;DHT22;8078;47.822;9.402;2023-08-31T04:54:52;10.70;99.90
15959;DHT22;8078;47.822;9.402;2023-08-31T04:57:17;10.80;99.90
15959;DHT22;8078;47.822;9.402;2023-08-31T04:59:43;10.80;99.90
15959;DHT22;8078;47.822;9.402;2023-08-31T05:02:09;10.80;99.90
15959;DHT22;8078;47.822;9.402;2023-08-31T05:04:34;10.80;99.90
15959;DHT22;8078;47.822;9.402;2023-08-31T05:07:00;10.70;99.90
15959;DHT22;8078;47.822;9.402;2023-08-31T05:09:25;10.70;99.90
15959;DHT22;8078;47.822;9.402;2023-08-31T05:11:52;10.70;99.90
15959;DHT22;8078;47.822;9.402;2023-08-31T05:14:18;10.70;99.90
15959;DHT22;8078;47.822;9.402;2023-08-31T05:16:43;10.80;99.90
15959;DHT22;8078;47.822;9.402;2023-08-31T05:19:09;10.80;99.90
15959;DHT22;8078;47.822;9.402;2023-08-31T05:21:34;10.80;99.90
15959;DHT22;8078;47.822;9.402;2023-08-31T05:24:00;10.80;99.90
15959;DHT22;8078;47.822;9.402;2023-08-31T05:26:25;10.80;99.90
15959;DHT22;8078;47.822;9.402;2023-08-31T05:28:51;10.80;99.90
15959;DHT22;8078;47.822;9.402;2023-08-31T05:31:16;10.80;99.90
15959;DHT22;8078;47.822;9.402;2023-08-31T05:33:42;10.90;99.90
15959;DHT22;8078;47.822;9.402;2023-08-31T05:36:08;10.90;99.90
15959;DHT22;8078;47.822;9.402;2023-08-31T05:38:34;10.80;99.90
15959;DHT22;8078;47.822;9.402;2023-08-31T05:41:09;10.80;99.90
15959;DHT22;8078;47.822;9.402;2023-08-31T05:43:35;10.80;99.90
15959;DHT22;8078;47.822;9.402;2023-08-31T05:46:01;10.80;99.90
15959;DHT22;8078;47.822;9.402;2023-08-31T05:48:27;10.90;99.90
15959;DHT22;8078;47.822;9.402;2023-08-31T05:50:53;10.90;99.90
15959;DHT22;8078;47.822;9.402;2023-08-31T05:53:19;11.00;99.90
15959;DHT22;8078;47.822;9.402;2023-08-31T05:55:45;11.00;99.90
15959;DHT22;8078;47.822;9.402;2023-08-31T05:58:11;11.00;99.90
15959;DHT22;8078;47.822;9.402;2023-08-31T06:00:36;10.80;99.90
15959;DHT22;8078;47.822;9.402;2023-08-31T06:03:04;10.90;99.90
15959;DHT22;8078;47.822;9.402;2023-08-31T06:05:31;10.90;99.90
15959;DHT22;8078;47.822;9.402;2023-08-31T06:07:57;10.90;99.90
15959;DHT22;8078;47.822;9.402;2023-08-31T06:10:23;11.00;99.90
15959;DHT22;8078;47.822;9.402;2023-08-31T06:12:49;10.90;99.90
15959;DHT22;8078;47.822;9.402;2023-08-31T06:15:16;10.90;99.90
15959;DHT22;8078;47.822;9.402;2023-08-31T06:17:42;10.90;99.90
15959;DHT22;8078;47.822;9.402;2023-08-31T06:20:09;10.90;99.90
15959;DHT22;8078;47.822;9.402;2023-08-31T06:22:35;10.90;99.90
15959;DHT22;8078;47.822;9.402;2023-08-31T06:25:00;10.80;99.90
15959;DHT22;8078;47.822;9.402;2023-08-31T06:27:26;10.90;99.90
15959;DHT22;8078;47.822;9.402;2023-08-31T06:29:52;10.90;99.90
15959;DHT22;8078;47.822;9.402;2023-08-31T06:32:17;10.90;99.90
15959;DHT22;8078;47.822;9.402;2023-08-31T06:34:44;10.80;99.90
15959;DHT22;8078;47.822;9.402;2023-08-31T06:37:10;10.80;99.90
15959;DHT22;8078;47.822;9.402;2023-08-31T06:39:35;10.80;99.90
15959;DHT22;8078;47.822;9.402;2023-08-31T06:42:01;10.80;99.90
15959;DHT22;8078;47.822;9.402;2023-08-31T06:44:27;10.80;99.90
15959;DHT22;8078;47.822;9.402;2023-08-31T06:46:55;10.80;99.90
15959;DHT22;8078;47.822;9.402;2023-08-31T06:49:22;10.90;99.90
15959;DHT22;8078;47.822;9.402;2023-08-31T06:51:48;10.90;99.90
15959;DHT22;8078;47.822;9.402;2023-08-31T06:54:13;10.90;99.90
15959;DHT22;8078;47.822;9.402;2023-08-31T06:56:39;10.80;99.90
15959;DHT22;8078;47.822;9.402;2023-08-31T06:59:04;10.80;99.90
15959;DHT22;8078;47.822;9.402;2023-08-31T07:01:31;10.90;99.90
15959;DHT22;8078;47.822;9.402;2023-08-31T07:03:58;11.00;99.90
15959;DHT22;8078;47.822;9.402;2023-08-31T07:06:23;11.00;99.90
15959;DHT22;8078;47.822;9.402;2023-08-31T07:08:49;11.00;99.90
15959;DHT22;8078;47.822;9.402;2023-08-31T07:11:15;11.00;99.90
15959;DHT22;8078;47.822;9.402;2023-08-31T07:13:41;11.20;99.90
15959;DHT22;8078;47.822;9.402;2023-08-31T07:16:07;11.00;99.90
15959;DHT22;8078;47.822;9.402;2023-08-31T07:18:33;11.10;99.90
15959;DHT22;8078;47.822;9.402;2023-08-31T07:20:58;11.30;99.90
15959;DHT22;8078;47.822;9.402;2023-08-31T07:23:24;11.20;99.90
15959;DHT22;8078;47.822;9.402;2023-08-31T07:25:50;11.20;99.90
15959;DHT22;8078;47.822;9.402;2023-08-31T07:28:15;11.10;99.90
15959;DHT22;8078;47.822;9.402;2023-08-31T07:30:41;11.10;99.90
15959;DHT22;8078;47.822;9.402;2023-08-31T07:33:07;11.20;99.90
15959;DHT22;8078;47.822;9.402;2023-08-31T07:35:33;11.50;99.90
15959;DHT22;8078;47.822;9.402;2023-08-31T07:37:58;11.40;99.90
15959;DHT22;8078;47.822;9.402;2023-08-31T07:40:24;11.40;99.90
15959;DHT22;8078;47.822;9.402;2023-08-31T07:42:50;11.70;99.90
15959;DHT22;8078;47.822;9.402;2023-08-31T07:45:17;11.70;99.90
15959;DHT22;8078;47.822;9.402;2023-08-31T07:47:42;12.10;99.90
15959;DHT22;8078;47.822;9.402;2023-08-31T07:50:08;12.30;99.90
15959;DHT22;8078;47.822;9.402;2023-08-31T07:52:34;12.50;99.90
15959;DHT22;8078;47.822;9.402;2023-08-31T07:55:01;12.40;99.90
15959;DHT22;8078;47.822;9.402;2023-08-31T07:57:27;12.50;99.90
15959;DHT22;8078;47.822;9.402;2023-08-31T07:59:52;12.50;99.90
15959;DHT22;8078;47.822;9.402;2023-08-31T08:02:18;12.40;99.90
15959;DHT22;8078;47.822;9.402;2023-08-31T08:04:45;12.50;99.90
15959;DHT22;8078;47.822;9.402;2023-08-31T08:07:11;12.30;99.90
15959;DHT22;8078;47.822;9.402;2023-08-31T08:09:37;12.30;99.90
15959;DHT22;8078;47.822;9.402;2023-08-31T08:12:02;12.50;99.90
15959;DHT22;8078;47.822;9.402;2023-08-31T08:14:28;12.60;99.90
15959;DHT22;8078;47.822;9.402;2023-08-31T08:16:54;12.40;99.90
15959;DHT22;8078;47.822;9.402;2023-08-31T08:19:23;12.30;99.90
15959;DHT22;8078;47.822;9.402;2023-08-31T08:21:50;12.20;99.90
15959;DHT22;8078;47.822;9.402;2023-08-31T08:24:15;12.30;99.90
15959;DHT22;8078;47.822;9.402;2023-08-31T08:26:41;12.30;99.90
15959;DHT22;8078;47.822;9.402;2023-08-31T08:29:07;12.40;99.90
15959;DHT22;8078;47.822;9.402;2023-08-31T08:31:32;12.80;99.90
15959;DHT22;8078;47.822;9.402;2023-08-31T08:33:58;12.80;99.90
15959;DHT22;8078;47.822;9.402;2023-08-31T08:36:23;13.00;99.90
15959;DHT22;8078;47.822;9.402;2023-08-31T08:38:49;13.00;99.90
15959;DHT22;8078;47.822;9.402;2023-08-31T08:41:15;13.00;99.90
15959;DHT22;8078;47.822;9.402;2023-08-31T08:43:47;13.00;99.90
15959;DHT22;8078;47.822;9.402;2023-08-31T08:46:13;12.90;99.90
15959;DHT22;8078;47.822;9.402;2023-08-31T08:48:39;13.00;99.90
15959;DHT22;8078;47.822;9.402;2023-08-31T08:51:07;13.10;99.90
15959;DHT22;8078;47.822;9.402;2023-08-31T08:53:33;12.80;99.90
15959;DHT22;8078;47.822;9.402;2023-08-31T08:55:59;12.70;99.90
15959;DHT22;8078;47.822;9.402;2023-08-31T08:58:25;12.70;99.90
15959;DHT22;8078;47.822;9.402;2023-08-31T09:00:51;12.70;99.90
15959;DHT22;8078;47.822;9.402;2023-08-31T09:03:18;13.00;99.90
15959;DHT22;8078;47.822;9.402;2023-08-31T09:05:44;13.20;99.90
15959;DHT22;8078;47.822;9.402;2023-08-31T09:08:10;13.40;99.90
15959;DHT22;8078;47.822;9.402;2023-08-31T09:10:41;13.20;99.90
15959;DHT22;8078;47.822;9.402;2023-08-31T09:13:11;12.70;99.90
15959;DHT22;8078;47.822;9.402;2023-08-31T09:15:41;12.80;99.90
15959;DHT22;8078;47.822;9.402;2023-08-31T09:18:07;12.80;99.90
15959;DHT22;8078;47.822;9.402;2023-08-31T09:20:46;12.80;99.90
15959;DHT22;8078;47.822;9.402;2023-08-31T09:23:13;12.80;99.90
15959;DHT22;8078;47.822;9.402;2023-08-31T09:25:42;12.90;99.90
15959;DHT22;8078;47.822;9.402;2023-08-31T09:28:08;13.10;99.90
15959;DHT22;8078;47.822;9.402;2023-08-31T09:30:37;13.20;99.90
15959;DHT22;8078;47.822;9.402;2023-08-31T09:33:23;13.30;99.90
15959;DHT22;8078;47.822;9.402;2023-08-31T09:35:54;13.60;99.90
15959;DHT22;8078;47.822;9.402;2023-08-31T09:38:21;13.60;99.90
15959;DHT22;8078;47.822;9.402;2023-08-31T09:40:46;13.10;99.90
15959;DHT22;8078;47.822;9.402;2023-08-31T09:43:12;12.80;99.90
15959;DHT22;8078;47.822;9.402;2023-08-31T09:45:43;12.80;99.90
15959;DHT22;8078;47.822;9.402;2023-08-31T09:48:10;12.90;99.90
15959;DHT22;8078;47.822;9.402;2023-08-31T09:50:36;12.80;99.90
15959;DHT22;8078;47.822;9.402;2023-08-31T09:53:04;12.90;99.90
15959;DHT22;8078;47.822;9.402;2023-08-31T09:55:31;12.90;99.90
15959;DHT22;8078;47.822;9.402;2023-08-31T09:57:59;12.90;99.90
15959;DHT22;8078;47.822;9.402;2023-08-31T10:00:29;13.00;99.90
15959;DHT22;8078;47.822;9.402;2023-08-31T10:02:57;12.80;99.90
15959;DHT22;8078;47.822;9.402;2023-08-31T10:05:24;12.70;99.90
15959;DHT22;8078;47.822;9.402;2023-08-31T10:07:50;12.70;99.90
15959;DHT22;8078;47.822;9.402;2023-08-31T10:10:16;12.60;99.90
15959;DHT22;8078;47.822;9.402;2023-08-31T10:12:42;12.70;99.90
15959;DHT22;8078;47.822;9.402;2023-08-31T10:15:09;12.50;99.90
15959;DHT22;8078;47.822;9.402;2023-08-31T10:17:36;12.60;99.90
15959;DHT22;8078;47.822;9.402;2023-08-31T10:20:02;12.70;99.90
15959;DHT22;8078;47.822;9.402;2023-08-31T10:22:28;12.90;99.90
15959;DHT22;8078;47.822;9.402;2023-08-31T10:25:02;13.40;99.90
15959;DHT22;8078;47.822;9.402;2023-08-31T10:27:42;13.90;99.90
15959;DHT22;8078;47.822;9.402;2023-08-31T10:35:51;14.00;99.90
15959;DHT22;8078;47.822;9.402;2023-08-31T10:38:37;13.80;99.90
15959;DHT22;8078;47.822;9.402;2023-08-31T10:43:48;13.60;99.90
15959;DHT22;8078;47.822;9.402;2023-08-31T10:46:32;14.10;99.90
15959;DHT22;8078;47.822;9.402;2023-08-31T10:51:34;14.50;99.90
15959;DHT22;8078;47.822;9.402;2023-08-31T10:54:33;13.90;99.90
15959;DHT22;8078;47.822;9.402;2023-08-31T10:57:03;14.30;99.90
15959;DHT22;8078;47.822;9.402;2023-08-31T11:07:34;13.90;99.90
15959;DHT22;8078;47.822;9.402;2023-08-31T11:10:12;13.90;99.90
15959;DHT22;8078;47.822;9.402;2023-08-31T11:12:39;13.90;99.90
15959;DHT22;8078;47.822;9.402;2023-08-31T11:15:05;14.00;99.90
15959;DHT22;8078;47.822;9.402;2023-08-31T11:17:31;13.80;99.90
15959;DHT22;8078;47.822;9.402;2023-08-31T11:19:58;14.00;99.90
15959;DHT22;8078;47.822;9.402;2023-08-31T11:22:24;14.20;99.90
15959;DHT22;8078;47.822;9.402;2023-08-31T11:24:50;14.30;99.90
15959;DHT22;8078;47.822;9.402;2023-08-31T11:27:19;14.50;99.90
15959;DHT22;8078;47.822;9.402;2023-08-31T11:29:45;14.70;99.90
15959;DHT22;8078;47.822;9.402;2023-08-31T11:32:11;14.90;99.90
15959;DHT22;8078;47.822;9.402;2023-08-31T11:34:42;15.30;99.90
15959;DHT22;8078;47.822;9.402;2023-08-31T11:37:12;15.50;99.90
15959;DHT22;8078;47.822;9.402;2023-08-31T11:39:50;15.00;99.90
15959;DHT22;8078;47.822;9.402;2023-08-31T11:42:16;14.60;99.90
15959;DHT22;8078;47.822;9.402;2023-08-31T11:44:45;14.80;99.90
15959;DHT22;8078;47.822;9.402;2023-08-31T11:47:12;14.40;99.90
15959;DHT22;8078;47.822;9.402;2023-08-31T11:49:39;14.50;99.90
15959;DHT22;8078;47.822;9.402;2023-08-31T11:52:05;14.30;99.90
15959;DHT22;8078;47.822;9.402;2023-08-31T11:54:31;14.50;99.90
15959;DHT22;8078;47.822;9.402;2023-08-31T11:56:57;14.90;99.90
15959;DHT22;8078;47.822;9.402;2023-08-31T11:59:22;15.20;99.90
15959;DHT22;8078;47.822;9.402;2023-08-31T12:01:50;15.40;99.90
15959;DHT22;8078;47.822;9.402;2023-08-31T12:04:20;15.20;99.90
15959;DHT22;8078;47.822;9.402;2023-08-31T12:06:50;15.60;99.90
15959;DHT22;8078;47.822;9.402;2023-08-31T12:09:16;15.00;99.90
15959;DHT22;8078;47.822;9.402;2023-08-31T12:11:42;15.30;99.90
15959;DHT22;8078;47.822;9.402;2023-08-31T12:14:25;15.80;99.90
15959;DHT22;8078;47.822;9.402;2023-08-31T12:16:52;14.90;99.90
15959;DHT22;8078;47.822;9.402;2023-08-31T12:19:18;15.00;99.90
15959;DHT22;8078;47.822;9.402;2023-08-31T12:21:46;14.60;99.90
15959;DHT22;8078;47.822;9.402;2023-08-31T12:24:12;14.90;99.90
15959;DHT22;8078;47.822;9.402;2023-08-31T12:26:38;15.40;99.90
15959;DHT22;8078;47.822;9.402;2023-08-31T12:29:04;15.00;99.90
15959;DHT22;8078;47.822;9.402;2023-08-31T12:31:30;14.90;99.90
15959;DHT22;8078;47.822;9.402;2023-08-31T12:33:56;15.00;99.90
15959;DHT22;8078;47.822;9.402;2023-08-31T12:36:23;15.10;99.90
15959;DHT22;8078;47.822;9.402;2023-08-31T12:38:48;15.40;99.90
15959;DHT22;8078;47.822;9.402;2023-08-31T12:41:14;15.30;99.90
15959;DHT22;8078;47.822;9.402;2023-08-31T12:43:39;15.50;99.90
15959;DHT22;8078;47.822;9.402;2023-08-31T12:46:05;15.60;99.90
15959;DHT22;8078;47.822;9.402;2023-08-31T12:48:35;15.00;99.90
15959;DHT22;8078;47.822;9.402;2023-08-31T12:51:00;14.90;99.90
15959;DHT22;8078;47.822;9.402;2023-08-31T12:53:26;15.30;99.90
15959;DHT22;8078;47.822;9.402;2023-08-31T12:55:53;15.20;99.90
15959;DHT22;8078;47.822;9.402;2023-08-31T12:58:19;15.40;99.90
15959;DHT22;8078;47.822;9.402;2023-08-31T13:00:45;15.40;99.90
15959;DHT22;8078;47.822;9.402;2023-08-31T13:03:13;15.30;99.90
15959;DHT22;8078;47.822;9.402;2023-08-31T13:05:39;14.80;99.90
15959;DHT22;8078;47.822;9.402;2023-08-31T13:08:06;14.90;99.90
15959;DHT22;8078;47.822;9.402;2023-08-31T13:10:32;15.00;99.90
15959;DHT22;8078;47.822;9.402;2023-08-31T13:12:57;14.90;99.90
15959;DHT22;8078;47.822;9.402;2023-08-31T13:15:23;14.60;99.90
15959;DHT22;8078;47.822;9.402;2023-08-31T13:17:48;14.60;99.90
15959;DHT22;8078;47.822;9.402;2023-08-31T13:20:14;14.60;99.90
15959;DHT22;8078;47.822;9.402;2023-08-31T13:22:40;14.50;99.90
15959;DHT22;8078;47.822;9.402;2023-08-31T13:25:05;14.60;99.90
15959;DHT22;8078;47.822;9.402;2023-08-31T13:27:31;15.00;99.90
15959;DHT22;8078;47.822;9.402;2023-08-31T13:29:59;14.90;99.90
15959;DHT22;8078;47.822;9.402;2023-08-31T13:32:24;15.10;99.90
15959;DHT22;8078;47.822;9.402;2023-08-31T13:34:50;14.90;99.90
15959;DHT22;8078;47.822;9.402;2023-08-31T13:37:16;14.90;99.90
15959;DHT22;8078;47.822;9.402;2023-08-31T13:39:42;14.80;99.90
15959;DHT22;8078;47.822;9.402;2023-08-31T13:42:07;14.80;99.90
15959;DHT22;8078;47.822;9.402;2023-08-31T13:44:33;14.80;99.90
15959;DHT22;8078;47.822;9.402;2023-08-31T13:46:59;14.90;99.90
15959;DHT22;8078;47.822;9.402;2023-08-31T13:49:25;14.80;99.90
15959;DHT22;8078;47.822;9.402;2023-08-31T13:51:50;14.90;99.90
15959;DHT22;8078;47.822;9.402;2023-08-31T13:54:16;14.90;99.90
15959;DHT22;8078;47.822;9.402;2023-08-31T13:56:41;15.00;99.90
15959;DHT22;8078;47.822;9.402;2023-08-31T13:59:09;15.10;99.90
15959;DHT22;8078;47.822;9.402;2023-08-31T14:01:34;14.90;99.90
15959;DHT22;8078;47.822;9.402;2023-08-31T14:04:01;14.80;99.90
15959;DHT22;8078;47.822;9.402;2023-08-31T14:06:26;14.80;99.90
15959;DHT22;8078;47.822;9.402;2023-08-31T14:08:52;14.90;99.90
15959;DHT22;8078;47.822;9.402;2023-08-31T14:11:18;15.00;99.90
15959;DHT22;8078;47.822;9.402;2023-08-31T14:13:44;15.10;99.90
15959;DHT22;8078;47.822;9.402;2023-08-31T14:16:12;15.30;99.90
15959;DHT22;8078;47.822;9.402;2023-08-31T14:18:37;15.30;99.90
15959;DHT22;8078;47.822;9.402;2023-08-31T14:21:03;15.20;99.90
15959;DHT22;8078;47.822;9.402;2023-08-31T14:23:29;15.20;99.90
15959;DHT22;8078;47.822;9.402;2023-08-31T14:26:01;15.10;99.90
15959;DHT22;8078;47.822;9.402;2023-08-31T14:28:26;15.40;99.90
15959;DHT22;8078;47.822;9.402;2023-08-31T14:30:52;14.90;99.90
15959;DHT22;8078;47.822;9.402;2023-08-31T14:33:17;14.90;99.90
15959;DHT22;8078;47.822;9.402;2023-08-31T14:35:43;15.10;99.90
15959;DHT22;8078;47.822;9.402;2023-08-31T14:38:11;15.30;99.90
15959;DHT22;8078;47.822;9.402;2023-08-31T14:40:40;15.40;99.90
15959;DHT22;8078;47.822;9.402;2023-08-31T14:43:06;15.10;99.90
15959;DHT22;8078;47.822;9.402;2023-08-31T14:45:32;14.90;99.90
15959;DHT22;8078;47.822;9.402;2023-08-31T14:47:57;15.00;99.90
15959;DHT22;8078;47.822;9.402;2023-08-31T14:50:23;15.00;99.90
15959;DHT22;8078;47.822;9.402;2023-08-31T14:52:49;15.20;99.90
15959;DHT22;8078;47.822;9.402;2023-08-31T14:55:14;15.20;99.90
15959;DHT22;8078;47.822;9.402;2023-08-31T14:57:40;14.90;99.90
15959;DHT22;8078;47.822;9.402;2023-08-31T15:00:08;15.00;99.90
15959;DHT22;8078;47.822;9.402;2023-08-31T15:02:34;15.00;99.90
15959;DHT22;8078;47.822;9.402;2023-08-31T15:04:59;14.90;99.90
15959;DHT22;8078;47.822;9.402;2023-08-31T15:07:25;15.00;99.90
15959;DHT22;8078;47.822;9.402;2023-08-31T15:09:52;15.00;99.90
15959;DHT22;8078;47.822;9.402;2023-08-31T15:12:17;14.90;99.90
15959;DHT22;8078;47.822;9.402;2023-08-31T15:14:43;14.80;99.90
15959;DHT22;8078;47.822;9.402;2023-08-31T15:17:09;14.70;99.90
15959;DHT22;8078;47.822;9.402;2023-08-31T15:19:34;14.80;99.90
15959;DHT22;8078;47.822;9.402;2023-08-31T15:22:00;14.90;99.90
15959;DHT22;8078;47.822;9.402;2023-08-31T15:24:25;15.00;99.90
15959;DHT22;8078;47.822;9.402;2023-08-31T15:26:51;15.00;99.90
15959;DHT22;8078;47.822;9.402;2023-08-31T15:29:17;15.10;99.90
15959;DHT22;8078;47.822;9.402;2023-08-31T15:31:43;15.10;99.90
15959;DHT22;8078;47.822;9.402;2023-08-31T15:34:12;15.30;99.90
15959;DHT22;8078;47.822;9.402;2023-08-31T15:36:38;15.20;99.90
15959;DHT22;8078;47.822;9.402;2023-08-31T15:39:04;15.30;99.90
15959;DHT22;8078;47.822;9.402;2023-08-31T15:41:29;15.00;99.90
15959;DHT22;8078;47.822;9.402;2023-08-31T15:44:00;14.90;99.90
15959;DHT22;8078;47.822;9.402;2023-08-31T15:46:26;14.80;99.90
15959;DHT22;8078;47.822;9.402;2023-08-31T15:48:51;14.80;99.90
15959;DHT22;8078;47.822;9.402;2023-08-31T15:51:17;14.70;99.90
15959;DHT22;8078;47.822;9.402;2023-08-31T15:53:42;14.60;99.90
15959;DHT22;8078;47.822;9.402;2023-08-31T15:56:08;14.50;99.90
15959;DHT22;8078;47.822;9.402;2023-08-31T15:58:34;14.50;99.90
15959;DHT22;8078;47.822;9.402;2023-08-31T16:00:59;14.40;99.90
15959;DHT22;8078;47.822;9.402;2023-08-31T16:03:32;14.30;99.90
15959;DHT22;8078;47.822;9.402;2023-08-31T16:05:58;14.40;99.90
15959;DHT22;8078;47.822;9.402;2023-08-31T16:08:27;14.40;99.90